Time,TemperatureF,DewpointF,PressureIn,WindDirection,WindDirectionDegrees,WindSpeedMPH,WindSpeedGustMPH,Humidity,HourlyPrecipIn,Conditions,Clouds,dailyrainin,SoftwareType,DateUTC
2013-04-06 00:12:00,58.4,41.0,29.52,South,177,11.0,17.0,53,0.00,,,0.00,weatherlink.com 1.10,2013-04-06 05:12:00,
2013-04-06 00:27:00,57.9,41.0,29.52,South,181,10.0,16.0,54,0.00,,,0.00,weatherlink.com 1.10,2013-04-06 05:27:00,
2013-04-06 00:42:00,57.9,41.0,29.52,South,180,7.0,14.0,54,0.00,,,0.00,weatherlink.com 1.10,2013-04-06 05:42:00,
2013-04-06 00:57:00,57.8,42.0,29.52,SSW,203,9.0,14.0,55,0.00,,,0.00,weatherlink.com 1.10,2013-04-06 05:57:00,
2013-04-06 01:12:00,58.1,42.0,29.52,South,181,8.0,17.0,55,0.00,,,0.00,weatherlink.com 1.10,2013-04-06 06:12:00,
2013-04-06 01:27:00,58.6,42.0,29.51,South,180,9.0,20.0,54,0.00,,,0.00,weatherlink.com 1.10,2013-04-06 06:27:00,
2013-04-06 01:42:00,58.6,42.0,29.51,ESE,110,8.0,16.0,54,0.00,,,0.00,weatherlink.com 1.10,2013-04-06 06:42:00,
2013-04-06 01:57:00,58.6,42.0,29.51,South,184,9.0,17.0,54,0.00,,,0.00,weatherlink.com 1.10,2013-04-06 06:57:00,
2013-04-06 02:12:00,58.5,42.0,29.50,SSW,203,12.0,19.0,55,0.00,,,0.00,weatherlink.com 1.10,2013-04-06 07:12:00,
2013-04-06 02:27:00,58.2,42.0,29.49,SSW,198,7.0,16.0,55,0.00,,,0.00,weatherlink.com 1.10,2013-04-06 07:27:00,
2013-04-06 02:42:00,57.8,42.0,29.49,South,182,7.0,15.0,56,0.00,,,0.00,weatherlink.com 1.10,2013-04-06 07:42:00,
2013-04-06 02:57:00,57.4,42.0,29.49,SSW,205,7.0,15.0,57,0.00,,,0.00,weatherlink.com 1.10,2013-04-06 07:57:00,
2013-04-06 03:12:00,57.1,42.0,29.48,SSE,155,6.0,14.0,58,0.00,,,0.00,weatherlink.com 1.10,2013-04-06 08:12:00,
2013-04-06 03:27:00,56.5,42.0,29.48,South,188,7.0,-999.0,59,-99.99,,,0.00,weatherlink.com 1.10,2013-04-06 08:27:00,
2013-04-06 03:58:00,55.8,42.0,29.47,South,184,7.0,13.0,61,0.00,,,0.00,weatherlink.com 1.10,2013-04-06 08:58:00,
2013-04-06 04:13:00,55.3,42.0,29.47,SSW,193,7.0,9.0,62,0.00,,,0.00,weatherlink.com 1.10,2013-04-06 09:13:00,
2013-04-06 04:28:00,54.8,42.0,29.47,South,178,5.0,9.0,63,0.00,,,0.00,weatherlink.com 1.10,2013-04-06 09:28:00,
2013-04-06 04:58:00,53.5,42.0,29.45,SSW,200,9.0,12.0,66,0.00,,,0.00,weatherlink.com 1.10,2013-04-06 09:58:00,
2013-04-06 05:13:00,53.1,42.0,29.44,SSW,205,7.0,13.0,67,0.00,,,0.00,weatherlink.com 1.10,2013-04-06 10:13:00,
2013-04-06 05:28:00,52.8,42.0,29.44,South,176,9.0,13.0,68,0.00,,,0.00,weatherlink.com 1.10,2013-04-06 10:28:00,
2013-04-06 05:43:00,52.6,42.0,29.44,South,183,7.0,12.0,68,0.00,,,0.00,weatherlink.com 1.10,2013-04-06 10:43:00,
2013-04-06 05:58:00,52.1,42.0,29.43,SSW,195,8.0,10.0,69,0.00,,,0.00,weatherlink.com 1.10,2013-04-06 10:58:00,
2013-04-06 06:13:00,51.9,42.0,29.43,SE,132,5.0,13.0,70,0.00,,,0.00,weatherlink.com 1.10,2013-04-06 11:13:00,
2013-04-06 06:28:00,51.5,42.0,29.42,SSE,160,9.0,11.0,71,0.00,,,0.00,weatherlink.com 1.10,2013-04-06 11:28:00,
2013-04-06 06:43:00,51.5,43.0,29.41,SSE,162,11.0,13.0,72,0.00,,,0.00,weatherlink.com 1.10,2013-04-06 11:43:00,
2013-04-06 07:13:00,51.8,43.0,29.41,South,188,6.0,13.0,72,0.00,,,0.00,weatherlink.com 1.10,2013-04-06 12:13:00,
2013-04-06 07:28:00,52.3,44.0,29.42,SSW,207,3.0,11.0,72,0.00,,,0.00,weatherlink.com 1.10,2013-04-06 12:28:00,
2013-04-06 07:43:00,52.6,44.0,29.42,SSW,201,8.0,14.0,72,0.00,,,0.00,weatherlink.com 1.10,2013-04-06 12:43:00,
2013-04-06 08:13:00,53.5,45.0,29.42,SSW,196,5.0,10.0,72,0.00,,,0.00,weatherlink.com 1.10,2013-04-06 13:13:00,
2013-04-06 08:29:00,53.9,45.0,29.41,SSW,198,13.0,15.0,71,0.00,,,0.00,weatherlink.com 1.10,2013-04-06 13:29:00,
2013-04-06 08:43:00,54.9,46.0,29.41,SSE,150,15.0,15.0,71,0.00,,,0.00,weatherlink.com 1.10,2013-04-06 13:43:00,
2013-04-06 08:58:00,55.7,46.0,29.41,SSW,198,6.0,14.0,70,0.00,,,0.00,weatherlink.com 1.10,2013-04-06 13:58:00,
2013-04-06 09:14:00,56.3,46.0,29.41,SSW,212,6.0,16.0,69,0.00,,,0.00,weatherlink.com 1.10,2013-04-06 14:14:00,
2013-04-06 10:14:00,58.6,48.0,29.39,NNW,330,2.0,9.0,67,0.00,,,0.00,weatherlink.com 1.10,2013-04-06 15:14:00,
2013-04-06 10:29:00,59.3,48.0,29.41,WNW,298,7.0,10.0,67,0.00,,,0.00,weatherlink.com 1.10,2013-04-06 15:29:00,
2013-04-06 10:44:00,57.1,46.0,29.41,West,281,8.0,24.0,66,0.00,,,0.00,weatherlink.com 1.10,2013-04-06 15:44:00,
2013-04-06 10:59:00,56.3,42.0,29.42,WNW,300,19.0,26.0,60,0.00,,,0.00,weatherlink.com 1.10,2013-04-06 15:59:00,
2013-04-06 11:14:00,56.5,42.0,29.42,WNW,300,15.0,25.0,58,0.00,,,0.00,weatherlink.com 1.10,2013-04-06 16:14:00,
2013-04-06 11:29:00,57.6,41.0,29.42,WNW,300,11.0,23.0,55,0.00,,,0.00,weatherlink.com 1.10,2013-04-06 16:29:00,
2013-04-06 11:44:00,56.8,40.0,29.43,WNW,295,12.0,24.0,54,0.00,,,0.00,weatherlink.com 1.10,2013-04-06 16:44:00,
2013-04-06 11:59:00,55.5,40.0,29.43,WNW,295,11.0,20.0,56,0.00,,,0.00,weatherlink.com 1.10,2013-04-06 16:59:00,
2013-04-06 12:14:00,56.0,41.0,29.44,WNW,300,17.0,20.0,57,0.00,,,0.00,weatherlink.com 1.10,2013-04-06 17:14:00,
2013-04-06 12:44:00,55.9,41.0,29.46,WNW,292,18.0,28.0,57,0.00,,,0.00,weatherlink.com 1.10,2013-04-06 17:44:00,
2013-04-06 12:59:00,57.1,41.0,29.46,SW,230,10.0,27.0,56,0.00,,,0.00,weatherlink.com 1.10,2013-04-06 17:59:00,
2013-04-06 13:29:00,60.6,44.0,29.46,WNW,295,15.0,26.0,54,0.00,,,0.00,weatherlink.com 1.10,2013-04-06 18:29:00,
2013-04-06 13:44:00,62.2,43.0,29.45,WNW,302,14.0,25.0,50,0.00,,,0.00,weatherlink.com 1.10,2013-04-06 18:44:00,
2013-04-06 13:59:00,64.7,44.0,29.45,NW,321,14.0,21.0,48,0.00,,,0.00,weatherlink.com 1.10,2013-04-06 18:59:00,
2013-04-06 14:14:00,65.1,44.0,29.44,WNW,292,19.0,27.0,46,0.00,,,0.00,weatherlink.com 1.10,2013-04-06 19:14:00,
2013-04-06 14:29:00,66.6,44.0,29.44,WNW,300,19.0,27.0,44,0.00,,,0.00,weatherlink.com 1.10,2013-04-06 19:29:00,
2013-04-06 14:59:00,67.7,44.0,29.44,WNW,301,13.0,28.0,43,0.00,,,0.00,weatherlink.com 1.10,2013-04-06 19:59:00,
2013-04-06 15:14:00,68.9,43.0,29.43,NW,314,18.0,28.0,40,0.00,,,0.00,weatherlink.com 1.10,2013-04-06 20:14:00,
2013-04-06 15:29:00,68.7,43.0,29.43,NW,309,16.0,33.0,40,0.00,,,0.00,weatherlink.com 1.10,2013-04-06 20:29:00,
2013-04-06 15:44:00,67.5,43.0,29.44,NW,324,16.0,32.0,41,0.00,,,0.00,weatherlink.com 1.10,2013-04-06 20:44:00,
2013-04-06 15:59:00,69.0,43.0,29.45,WNW,288,20.0,27.0,39,0.00,,,0.00,weatherlink.com 1.10,2013-04-06 20:59:00,
2013-04-06 16:29:00,69.5,42.0,29.45,WNW,301,17.0,27.0,37,0.00,,,0.00,weatherlink.com 1.10,2013-04-06 21:29:00,
2013-04-06 16:59:00,69.7,42.0,29.46,WNW,297,17.0,28.0,37,0.00,,,0.00,weatherlink.com 1.10,2013-04-06 21:59:00,
2013-04-06 17:14:00,70.3,42.0,29.47,WNW,303,18.0,29.0,36,0.00,,,0.00,weatherlink.com 1.10,2013-04-06 22:14:00,
2013-04-06 17:29:00,70.3,43.0,29.48,NW,318,17.0,27.0,37,0.00,,,0.00,weatherlink.com 1.10,2013-04-06 22:29:00,
2013-04-06 17:44:00,70.3,43.0,29.49,NW,314,12.0,22.0,37,0.00,,,0.00,weatherlink.com 1.10,2013-04-06 22:44:00,
2013-04-06 17:59:00,70.1,43.0,29.49,NNW,338,14.0,23.0,38,0.00,,,0.00,weatherlink.com 1.10,2013-04-06 22:59:00,
2013-04-06 18:29:00,69.2,42.0,29.50,WNW,301,11.0,22.0,38,0.00,,,0.00,weatherlink.com 1.10,2013-04-06 23:29:00,
2013-04-06 18:44:00,69.2,42.0,29.50,NW,324,10.0,16.0,38,0.00,,,0.00,weatherlink.com 1.10,2013-04-06 23:44:00,
2013-04-06 18:59:00,68.9,41.0,29.50,NW,314,10.0,16.0,37,0.00,,,0.00,weatherlink.com 1.10,2013-04-06 23:59:00,
2013-04-06 19:14:00,67.7,42.0,29.51,NW,309,7.0,10.0,39,0.00,,,0.00,weatherlink.com 1.10,2013-04-07 00:14:00,
2013-04-06 19:29:00,66.2,42.0,29.51,NW,324,3.0,6.0,41,0.00,,,0.00,weatherlink.com 1.10,2013-04-07 00:29:00,
2013-04-06 19:44:00,65.4,42.0,29.51,NW,324,2.0,4.0,42,0.00,,,0.00,weatherlink.com 1.10,2013-04-07 00:44:00,
2013-04-06 19:59:00,64.5,41.0,29.52,NW,319,0.0,2.0,43,0.00,,,0.00,weatherlink.com 1.10,2013-04-07 00:59:00,
2013-04-06 20:29:00,61.8,41.0,29.53,SSW,204,0.0,1.0,46,0.00,,,0.00,weatherlink.com 1.10,2013-04-07 01:29:00,
2013-04-06 20:44:00,59.4,40.0,29.53,SSW,195,0.0,0.0,49,0.00,,,0.00,weatherlink.com 1.10,2013-04-07 01:44:00,
2013-04-06 20:59:00,58.7,40.0,29.54,SSE,160,0.0,1.0,51,0.00,,,0.00,weatherlink.com 1.10,2013-04-07 01:59:00,
2013-04-06 21:14:00,57.9,40.0,29.54,SSE,160,0.0,0.0,52,0.00,,,0.00,weatherlink.com 1.10,2013-04-07 02:14:00,
2013-04-06 21:30:00,60.1,41.0,29.55,NNW,335,3.0,5.0,50,0.00,,,0.00,weatherlink.com 1.10,2013-04-07 02:30:00,
2013-04-06 21:45:00,58.4,42.0,29.56,WNW,300,0.0,0.0,55,0.00,,,0.00,weatherlink.com 1.10,2013-04-07 02:45:00,
2013-04-06 22:00:00,56.9,40.0,29.56,SSW,208,1.0,1.0,54,0.00,,,0.00,weatherlink.com 1.10,2013-04-07 03:00:00,
2013-04-06 22:15:00,55.5,40.0,29.56,SSW,197,0.0,0.0,57,0.00,,,0.00,weatherlink.com 1.10,2013-04-07 03:15:00,
2013-04-06 22:30:00,55.3,41.0,29.57,SE,136,0.0,0.0,58,0.00,,,0.00,weatherlink.com 1.10,2013-04-07 03:30:00,
2013-04-06 22:45:00,54.6,40.0,29.57,SE,139,0.0,0.0,59,0.00,,,0.00,weatherlink.com 1.10,2013-04-07 03:45:00,
2013-04-06 23:00:00,53.8,40.0,29.57,SE,138,0.0,0.0,59,0.00,,,0.00,weatherlink.com 1.10,2013-04-07 04:00:00,
2013-04-06 23:15:00,52.8,39.0,29.57,SE,139,0.0,0.0,61,0.00,,,0.00,weatherlink.com 1.10,2013-04-07 04:15:00,
2013-04-06 23:30:00,52.0,39.0,29.57,SSE,160,0.0,0.0,62,0.00,,,0.00,weatherlink.com 1.10,2013-04-07 04:30:00,
2013-04-06 23:45:00,52.0,39.0,29.58,SSE,160,0.0,0.0,62,0.00,,,0.00,weatherlink.com 1.10,2013-04-07 04:45:00,